Terminal Aerodrome Forecast
Issued by NWS

Home | Current Version | Previous Version | Text Only | Print | Product List | Glossary On
Versions: 1 2 3 4 5 6 7 8 9 10 11 12 13 14
913
FTUS45 KTFX 230242 AAB
TAFGTF
TAF AMD
KGTF 230242Z 2303/2324 04009KT 1SM BR OVC005
      TEMPO 2303/2306 1/2SM -SN FZFG OVC002
     FM230600 03008KT 3SM -SN BR SCT002 OVC005
     FM230800 VRB06KT 3SM -SN BR SCT005 OVC010=

USA.gov is the U.S. government's official web portal to all federal, state and local government web resources and services.